McNeil Island, Washington
Current Conditions -  °F | °C
As of 11:58 AM on Thursday 29 Jan 2015 (Local Time) from KTCM Reporting Station
Clear Clear  
Wind Chill: 49°   Ceiling: Unl
Heat Index: 49°   Visibility: 10mi
Dew Point: 43°   Wind: 2mph
Humidity: 81%   Direction: NA
Pressure: 30.34"   Gusts: NA
Location:  47.1696°N, 122.593°W
Report Text: KTCM 291958Z AUTO VRB02KT 10SM CLR 09/06 A3034 RMK AO2 SLP280 T00940063
Loading
Personal Weather Stations






























Interactive Weather Map New forecast layout! Learn more

10-Day Weather Forecast

Advertisements
Track Severe Weather on mobile